createdAt,value
2022-10-06T00:02:19.211Z,3.20
2022-10-06T00:04:47.188Z,3.15
2022-10-06T00:07:15.079Z,3.58
2022-10-06T00:09:42.328Z,2.72
2022-10-06T00:12:09.815Z,2.50
2022-10-06T00:14:36.807Z,2.65
2022-10-06T00:17:03.432Z,3.38
2022-10-06T00:19:29.845Z,2.50
2022-10-06T00:21:56.230Z,2.70
2022-10-06T00:24:22.641Z,2.50
2022-10-06T00:26:49.122Z,3.13
2022-10-06T00:29:15.792Z,2.65
2022-10-06T00:31:42.200Z,2.58
2022-10-06T00:34:08.606Z,2.25
2022-10-06T00:36:35.050Z,2.67
2022-10-06T00:39:01.477Z,2.65
2022-10-06T00:41:28.505Z,3.45
2022-10-06T00:43:59.306Z,2.38
2022-10-06T00:46:47.422Z,3.13
2022-10-06T00:49:23.543Z,2.53
2022-10-06T00:52:06.979Z,2.58
2022-10-06T00:54:36.016Z,2.40
2022-10-06T00:57:04.504Z,2.53
2022-10-06T00:59:30.906Z,2.17
2022-10-06T01:02:03.777Z,2.75
2022-10-06T01:04:36.825Z,2.35
2022-10-06T01:07:04.266Z,2.60
2022-10-06T01:09:31.502Z,2.35
2022-10-06T01:12:02.106Z,2.58
2022-10-06T01:14:29.198Z,2.90
2022-10-06T01:17:07.644Z,2.40
2022-10-06T01:19:48.546Z,2.67
2022-10-06T01:24:47.219Z,2.30
2022-10-06T01:27:15.869Z,2.38
2022-10-06T01:29:42.544Z,2.20
2022-10-06T01:32:09.501Z,2.33
2022-10-06T01:34:36.445Z,3.20
2022-10-06T01:37:02.810Z,3.13
2022-10-06T01:39:29.918Z,2.40
2022-10-06T01:41:56.470Z,2.10
2022-10-06T01:44:22.862Z,2.35
2022-10-06T01:46:50.565Z,2.75
2022-10-06T01:49:17.005Z,2.35
2022-10-06T01:51:45.849Z,2.40
2022-10-06T01:54:12.267Z,2.78
2022-10-06T01:56:38.789Z,3.95
2022-10-06T01:59:05.480Z,3.20
2022-10-06T02:01:32.082Z,2.65
2022-10-06T02:03:58.620Z,2.97
2022-10-06T02:06:26.144Z,2.75
2022-10-06T02:08:52.609Z,3.22
2022-10-06T02:11:19.915Z,2.60
2022-10-06T02:13:48.539Z,3.90
2022-10-06T02:16:15.114Z,3.33
2022-10-06T02:18:42.961Z,3.40
2022-10-06T02:21:15.420Z,2.47
2022-10-06T02:23:41.927Z,2.40
2022-10-06T02:26:08.486Z,2.50
2022-10-06T02:28:35.398Z,2.15
2022-10-06T02:31:07.224Z,2.25
2022-10-06T02:33:36.065Z,2.88
2022-10-06T02:36:05.453Z,3.15
2022-10-06T02:38:32.884Z,2.65
2022-10-06T02:41:01.914Z,2.35
2022-10-06T02:43:31.483Z,2.03
2022-10-06T02:46:12.259Z,2.50
2022-10-06T02:48:43.119Z,3.42
2022-10-06T02:51:13.346Z,2.92
2022-10-06T02:53:40.165Z,3.15
2022-10-06T02:56:21.953Z,2.40
2022-10-06T02:58:49.552Z,2.85
2022-10-06T03:01:27.272Z,2.88
2022-10-06T03:03:56.866Z,2.30
2022-10-06T03:06:25.724Z,2.50
2022-10-06T03:09:01.847Z,2.30
2022-10-06T03:11:34.734Z,3.75
2022-10-06T03:14:01.684Z,2.75
2022-10-06T03:16:38.681Z,2.60
2022-10-06T03:19:09.051Z,2.63
2022-10-06T03:21:40.061Z,2.25
2022-10-06T03:24:06.839Z,2.28
2022-10-06T03:26:38.764Z,2.63
2022-10-06T03:29:11.096Z,2.28
2022-10-06T03:31:40.979Z,2.72
2022-10-06T03:34:07.423Z,2.60
2022-10-06T03:36:35.191Z,3.05
2022-10-06T03:39:04.003Z,2.35
2022-10-06T03:41:34.509Z,1.53
2022-10-06T03:44:01.456Z,2.85
2022-10-06T03:46:34.042Z,2.63
2022-10-06T03:49:03.597Z,2.33
2022-10-06T03:51:39.080Z,2.22
2022-10-06T03:54:10.683Z,2.53
2022-10-06T03:56:40.929Z,2.40
2022-10-06T03:59:12.272Z,2.40
2022-10-06T04:01:46.281Z,1.92
2022-10-06T04:04:17.103Z,2.42
2022-10-06T04:06:46.948Z,2.35
2022-10-06T04:09:16.862Z,2.47
2022-10-06T04:11:44.760Z,2.80
2022-10-06T04:14:15.043Z,2.70
2022-10-06T04:16:46.908Z,2.25
2022-10-06T04:19:17.035Z,2.80
2022-10-06T04:21:48.186Z,2.33
2022-10-06T04:24:18.728Z,2.70
2022-10-06T04:26:48.904Z,2.55
2022-10-06T04:29:17.046Z,2.65
2022-10-06T04:31:46.101Z,3.20
2022-10-06T04:34:21.335Z,3.30
2022-10-06T04:36:48.073Z,2.75
2022-10-06T04:39:16.361Z,3.30
2022-10-06T04:41:47.245Z,2.88
2022-10-06T04:44:19.009Z,2.75
2022-10-06T04:46:46.012Z,4.32
2022-10-06T04:49:19.472Z,3.30
2022-10-06T04:51:48.873Z,4.00
2022-10-06T04:54:15.936Z,3.88
2022-10-06T04:56:42.526Z,2.72
2022-10-06T04:59:09.808Z,3.40
2022-10-06T05:01:38.889Z,2.40
2022-10-06T05:04:09.832Z,3.40
2022-10-06T05:06:39.774Z,3.38
2022-10-06T05:09:08.803Z,3.17
2022-10-06T05:11:37.352Z,3.42
2022-10-06T05:14:07.028Z,2.53
2022-10-06T05:16:38.168Z,3.77
2022-10-06T05:19:05.801Z,3.75
2022-10-06T05:21:32.774Z,3.58
2022-10-06T05:24:00.955Z,4.07
2022-10-06T05:26:30.881Z,4.10
2022-10-06T05:28:58.631Z,4.43
2022-10-06T05:31:28.268Z,4.32
2022-10-06T05:33:57.192Z,3.83
2022-10-06T05:36:28.634Z,3.78
2022-10-06T05:38:56.225Z,4.53
2022-10-06T05:41:25.113Z,4.53
2022-10-06T05:43:52.036Z,4.97
2022-10-06T05:46:25.122Z,4.55
2022-10-06T05:48:55.833Z,4.70
2022-10-06T05:51:31.116Z,4.22
2022-10-06T05:53:59.919Z,3.85
2022-10-06T05:56:31.755Z,3.55
2022-10-06T05:58:59.746Z,3.33
2022-10-06T06:01:36.239Z,3.22
2022-10-06T06:04:10.271Z,4.70
2022-10-06T06:06:43.826Z,4.05
2022-10-06T06:09:16.955Z,8.98
2022-10-06T06:11:49.732Z,4.60
2022-10-06T06:14:40.740Z,3.83
2022-10-06T06:17:07.750Z,3.20
2022-10-06T06:19:34.166Z,4.00
2022-10-06T06:22:00.791Z,5.22
2022-10-06T06:24:27.190Z,3.13
2022-10-06T06:26:53.588Z,5.28
2022-10-06T06:29:20.011Z,6.25
2022-10-06T06:31:48.725Z,3.72
2022-10-06T06:34:15.625Z,3.90
2022-10-06T06:36:46.770Z,3.22
2022-10-06T06:39:17.583Z,4.10
2022-10-06T06:41:47.092Z,3.88
2022-10-06T06:44:35.612Z,3.78
2022-10-06T06:47:05.610Z,4.47
2022-10-06T06:49:32.258Z,3.95
2022-10-06T06:52:04.674Z,3.55
2022-10-06T06:54:33.288Z,3.85
2022-10-06T06:57:04.834Z,4.18
2022-10-06T06:59:32.932Z,4.18
2022-10-06T07:02:00.935Z,3.67
2022-10-06T07:04:30.414Z,3.50
2022-10-06T07:06:59.741Z,3.50
2022-10-06T07:09:30.598Z,3.60
2022-10-06T07:12:07.114Z,4.15
2022-10-06T07:14:33.513Z,3.50
2022-10-06T07:17:19.677Z,3.53
2022-10-06T07:20:07.754Z,3.70
2022-10-06T07:22:53.637Z,3.50
2022-10-06T07:25:26.354Z,3.75
2022-10-06T07:27:59.159Z,3.72
2022-10-06T07:30:35.014Z,3.60
2022-10-06T07:33:12.005Z,3.08
2022-10-06T07:35:39.492Z,3.17
2022-10-06T07:38:07.806Z,3.20
2022-10-06T07:40:46.237Z,3.05
2022-10-06T07:43:22.672Z,3.65
2022-10-06T07:45:50.289Z,3.80
2022-10-06T07:48:23.352Z,3.72
2022-10-06T07:51:01.529Z,4.90
2022-10-06T07:53:36.011Z,3.63
2022-10-06T07:56:08.652Z,3.85
2022-10-06T07:58:44.116Z,3.92
2022-10-06T08:01:15.365Z,4.22
2022-10-06T08:06:14.238Z,4.20
2022-10-06T08:08:41.619Z,4.13
2022-10-06T08:11:09.801Z,3.95
2022-10-06T08:13:38.046Z,4.25
2022-10-06T08:16:10.424Z,3.83
2022-10-06T08:18:46.833Z,4.32
2022-10-06T08:21:28.844Z,4.25
2022-10-06T08:23:58.054Z,4.30
2022-10-06T08:26:26.083Z,4.15
2022-10-06T08:28:55.248Z,4.15
2022-10-06T08:31:22.860Z,4.15
2022-10-06T08:33:54.130Z,4.18
2022-10-06T08:38:50.381Z,4.05
2022-10-06T08:41:39.704Z,3.60
2022-10-06T08:44:19.479Z,3.92
2022-10-06T08:47:02.821Z,4.00
2022-10-06T08:49:39.360Z,3.50
2022-10-06T08:52:46.155Z,3.72
2022-10-06T08:55:37.398Z,3.50
2022-10-06T08:58:29.090Z,3.03
2022-10-06T09:01:15.161Z,3.53
2022-10-06T09:03:47.242Z,3.50
2022-10-06T09:06:44.809Z,4.00
2022-10-06T09:09:39.211Z,3.55
2022-10-06T09:12:25.960Z,4.25
2022-10-06T09:14:57.071Z,3.20
2022-10-06T09:17:32.071Z,3.08
2022-10-06T09:20:03.401Z,3.05
2022-10-06T09:22:32.435Z,3.05
2022-10-06T09:25:17.024Z,3.67
2022-10-06T09:27:50.546Z,3.55
2022-10-06T09:30:17.706Z,3.42
2022-10-06T09:32:47.002Z,3.70
2022-10-06T09:35:22.291Z,7.97
2022-10-06T09:38:00.107Z,4.20
2022-10-06T09:40:39.000Z,2.78
2022-10-06T09:43:25.455Z,2.97
2022-10-06T09:45:57.240Z,3.35
2022-10-06T09:48:27.108Z,3.10
2022-10-06T09:51:14.095Z,3.35
2022-10-06T09:53:42.337Z,2.83
2022-10-06T09:56:18.747Z,3.50
2022-10-06T09:58:59.202Z,3.95
2022-10-06T10:01:28.527Z,3.40
2022-10-06T10:04:19.594Z,3.50
2022-10-06T10:06:47.766Z,3.30
2022-10-06T10:09:21.320Z,2.92
2022-10-06T10:12:24.861Z,3.47
2022-10-06T10:15:13.593Z,3.70
2022-10-06T10:17:49.596Z,3.10
2022-10-06T10:20:25.119Z,3.20
2022-10-06T10:22:53.183Z,2.60
2022-10-06T10:25:44.334Z,3.45
2022-10-06T10:28:17.955Z,3.15
2022-10-06T10:30:54.660Z,2.40
2022-10-06T10:33:46.162Z,2.55
2022-10-06T10:36:27.392Z,2.75
2022-10-06T10:38:55.116Z,2.60
2022-10-06T10:41:28.805Z,2.70
2022-10-06T10:44:21.265Z,2.00
2022-10-06T10:46:52.272Z,1.77
2022-10-06T10:49:28.402Z,1.85
2022-10-06T10:52:05.300Z,2.20
2022-10-06T10:54:44.245Z,2.10
2022-10-06T10:57:16.302Z,2.15
2022-10-06T10:59:49.492Z,2.10
2022-10-06T11:02:19.417Z,2.50
2022-10-06T11:04:50.217Z,2.50
2022-10-06T11:07:38.446Z,2.28
2022-10-06T11:10:20.826Z,2.28
2022-10-06T11:13:16.192Z,2.50
2022-10-06T11:16:06.752Z,2.25
2022-10-06T11:19:18.013Z,3.38
2022-10-06T11:22:10.060Z,2.92
2022-10-06T11:24:47.878Z,2.63
2022-10-06T11:27:31.501Z,2.53
2022-10-06T11:30:07.385Z,2.92
2022-10-06T11:32:48.762Z,2.85
2022-10-06T11:35:23.674Z,2.90
2022-10-06T11:37:57.857Z,3.03
2022-10-06T11:40:51.691Z,3.55
2022-10-06T11:43:28.933Z,2.95
2022-10-06T11:46:18.917Z,2.92
2022-10-06T11:48:46.517Z,2.67
2022-10-06T11:51:25.038Z,3.40
2022-10-06T11:53:58.644Z,3.08
2022-10-06T11:56:37.518Z,2.78
2022-10-06T11:59:24.951Z,2.45
2022-10-06T12:01:53.334Z,3.03
2022-10-06T12:04:24.546Z,2.55
2022-10-06T12:06:56.321Z,2.40
2022-10-06T12:09:25.882Z,2.60
2022-10-06T12:11:54.561Z,3.20
2022-10-06T12:17:58.095Z,3.95
2022-10-06T12:20:44.961Z,4.03
2022-10-06T12:23:26.212Z,3.35
2022-10-06T12:25:59.402Z,3.03
2022-10-06T12:28:39.212Z,2.90
2022-10-06T12:31:22.798Z,2.80
2022-10-06T12:33:50.417Z,2.83
2022-10-06T12:36:28.166Z,2.60
2022-10-06T12:39:06.838Z,2.28
2022-10-06T12:41:59.567Z,2.63
2022-10-06T12:44:43.013Z,2.63
2022-10-06T12:47:37.038Z,2.38
2022-10-06T12:50:12.971Z,2.92
2022-10-06T12:52:54.262Z,3.85
2022-10-06T12:55:43.847Z,6.78
2022-10-06T12:58:26.225Z,5.00
2022-10-06T13:00:53.190Z,3.90
2022-10-06T13:03:24.755Z,3.72
2022-10-06T13:05:57.166Z,3.20
2022-10-06T13:08:32.270Z,3.55
2022-10-06T13:11:31.164Z,3.15
2022-10-06T13:14:07.801Z,2.20
2022-10-06T13:16:40.958Z,3.67
2022-10-06T13:19:17.328Z,2.95
2022-10-06T13:21:44.288Z,2.72
2022-10-06T13:24:19.277Z,3.25
2022-10-06T13:26:46.562Z,3.47
2022-10-06T13:29:19.410Z,3.15
2022-10-06T13:31:51.876Z,2.60
2022-10-06T13:34:28.700Z,14.38
2022-10-06T13:36:55.764Z,3.67
2022-10-06T13:39:24.531Z,4.38
2022-10-06T13:41:56.130Z,2.88
2022-10-06T13:44:39.618Z,3.10
2022-10-06T13:47:15.616Z,2.75
2022-10-06T13:50:00.535Z,3.72
2022-10-06T13:52:37.951Z,2.55
2022-10-06T13:55:27.185Z,2.25
2022-10-06T13:57:56.675Z,2.67
2022-10-06T14:00:32.140Z,2.42
2022-10-06T14:03:04.508Z,2.83
2022-10-06T14:05:41.767Z,2.03
2022-10-06T14:08:11.298Z,2.10
2022-10-06T14:10:40.735Z,2.30
2022-10-06T14:13:16.734Z,2.22
2022-10-06T14:15:58.341Z,2.30
2022-10-06T14:18:43.879Z,2.08
2022-10-06T14:21:17.848Z,2.35
2022-10-06T14:23:51.466Z,2.10
2022-10-06T14:26:23.098Z,2.35
2022-10-06T14:28:52.746Z,2.03
2022-10-06T14:31:24.954Z,2.33
2022-10-06T14:33:52.653Z,2.03
2022-10-06T14:36:22.599Z,2.17
2022-10-06T14:38:50.872Z,1.85
2022-10-06T14:41:24.897Z,2.47
2022-10-06T14:44:08.469Z,2.00
2022-10-06T14:46:35.733Z,2.75
2022-10-06T14:49:07.489Z,2.47
2022-10-06T14:51:37.039Z,2.00
2022-10-06T14:54:05.017Z,1.80
2022-10-06T14:56:33.470Z,1.98
2022-10-06T14:59:03.841Z,2.72
2022-10-06T15:01:31.419Z,2.97
2022-10-06T15:04:00.506Z,2.20
2022-10-06T15:06:46.611Z,1.95
2022-10-06T15:09:13.542Z,2.05
2022-10-06T15:11:40.691Z,2.58
2022-10-06T15:14:08.590Z,1.98
2022-10-06T15:16:37.389Z,2.90
2022-10-06T15:19:05.420Z,3.72
2022-10-06T15:21:33.342Z,3.47
2022-10-06T15:24:02.882Z,2.03
2022-10-06T15:26:49.028Z,1.90
2022-10-06T15:29:16.186Z,2.00
2022-10-06T15:31:44.816Z,2.00
2022-10-06T15:34:13.598Z,2.03
2022-10-06T15:36:43.137Z,2.78
2022-10-06T15:39:12.100Z,6.63
2022-10-06T15:41:40.787Z,4.95
2022-10-06T15:44:08.453Z,3.50
2022-10-06T15:46:49.672Z,5.72
2022-10-06T15:49:19.818Z,2.20
2022-10-06T15:51:51.906Z,3.33
2022-10-06T15:54:24.205Z,2.08
2022-10-06T15:56:55.189Z,1.25
2022-10-06T16:01:56.131Z,1.73
2022-10-06T16:04:40.321Z,1.92
2022-10-06T16:07:08.772Z,1.80
2022-10-06T16:09:43.107Z,2.35
2022-10-06T16:12:12.706Z,1.50
2022-10-06T16:14:39.135Z,2.15
2022-10-06T16:17:06.989Z,1.60
2022-10-06T16:19:36.649Z,1.60
2022-10-06T16:22:04.587Z,1.55
2022-10-06T16:24:31.218Z,2.15
2022-10-06T16:26:59.729Z,2.53
2022-10-06T16:29:27.625Z,2.63
2022-10-06T16:31:54.774Z,3.13
2022-10-06T16:34:21.406Z,2.20
2022-10-06T16:36:47.804Z,2.75
2022-10-06T16:39:19.977Z,2.60
2022-10-06T16:41:47.079Z,2.10
2022-10-06T16:44:13.566Z,2.13
2022-10-06T16:46:40.176Z,1.90
2022-10-06T16:49:08.478Z,2.20
2022-10-06T16:51:37.299Z,2.25
2022-10-06T16:54:08.862Z,2.17
2022-10-06T16:56:37.849Z,2.60
2022-10-06T16:59:10.670Z,2.88
2022-10-06T17:01:37.574Z,3.45
2022-10-06T17:04:08.111Z,3.40
2022-10-06T17:06:39.292Z,3.47
2022-10-06T17:11:36.081Z,3.08
2022-10-06T17:14:03.267Z,3.13
2022-10-06T17:16:32.843Z,4.07
2022-10-06T17:18:59.474Z,3.30
2022-10-06T17:21:45.122Z,2.30
2022-10-06T17:24:12.593Z,2.70
2022-10-06T17:26:40.943Z,2.88
2022-10-06T17:29:11.711Z,2.75
2022-10-06T17:31:40.787Z,2.60
2022-10-06T17:34:12.283Z,3.03
2022-10-06T17:36:50.639Z,2.90
2022-10-06T17:39:19.709Z,3.03
2022-10-06T17:41:47.572Z,2.42
2022-10-06T17:44:23.715Z,3.17
2022-10-06T17:46:52.995Z,2.72
2022-10-06T17:49:20.793Z,3.35
2022-10-06T17:51:48.450Z,3.10
2022-10-06T17:54:18.933Z,3.03
2022-10-06T17:56:47.336Z,3.67
2022-10-06T17:59:22.214Z,3.00
2022-10-06T18:01:49.108Z,3.63
2022-10-06T18:04:16.024Z,3.50
2022-10-06T18:06:44.073Z,3.20
2022-10-06T18:09:11.366Z,4.03
2022-10-06T18:11:39.617Z,5.05
2022-10-06T18:14:14.589Z,6.13
2022-10-06T18:16:45.277Z,8.32
2022-10-06T18:19:17.597Z,7.93
2022-10-06T18:21:45.642Z,8.50
2022-10-06T18:24:16.347Z,7.38
2022-10-06T18:26:48.070Z,7.40
2022-10-06T18:29:16.609Z,7.15
2022-10-06T18:31:43.898Z,6.10
2022-10-06T18:36:58.364Z,5.03
2022-10-06T18:39:25.354Z,3.92
2022-10-06T18:41:52.190Z,4.60
2022-10-06T18:44:39.473Z,5.03
2022-10-06T18:47:24.315Z,3.90
2022-10-06T18:49:52.822Z,3.95
2022-10-06T18:52:21.494Z,4.10
2022-10-06T18:54:48.794Z,3.53
2022-10-06T18:57:15.266Z,4.07
2022-10-06T18:59:42.383Z,4.38
2022-10-06T19:02:08.931Z,4.10
2022-10-06T19:04:35.813Z,4.30
2022-10-06T19:07:02.462Z,4.85
2022-10-06T19:09:28.865Z,5.13
2022-10-06T19:11:57.648Z,7.97
2022-10-06T19:14:34.822Z,14.45
2022-10-06T19:17:14.920Z,10.48
2022-10-06T19:19:50.879Z,11.25
2022-10-06T19:22:19.138Z,11.55
2022-10-06T19:24:48.260Z,10.73
2022-10-06T19:27:20.711Z,9.75
2022-10-06T19:29:56.289Z,8.93
2022-10-06T19:32:26.144Z,9.80
2022-10-06T19:34:53.028Z,8.20
2022-10-06T19:37:19.498Z,10.10
2022-10-06T19:39:49.949Z,8.70
2022-10-06T19:42:36.942Z,7.47
2022-10-06T19:45:05.400Z,6.88
2022-10-06T19:47:31.850Z,6.25
2022-10-06T19:50:02.069Z,5.43
2022-10-06T19:52:31.282Z,5.15
2022-10-06T19:54:57.980Z,4.80
2022-10-06T19:57:25.012Z,4.20
2022-10-06T19:59:51.423Z,4.38
2022-10-06T20:02:17.833Z,4.70
2022-10-06T20:04:45.273Z,3.95
2022-10-06T20:07:12.588Z,4.00
2022-10-06T20:09:38.981Z,4.07
2022-10-06T20:12:05.861Z,3.35
2022-10-06T20:14:32.366Z,3.45
2022-10-06T20:16:58.825Z,3.47
2022-10-06T20:19:25.388Z,4.55
2022-10-06T20:21:52.874Z,3.92
2022-10-06T20:24:22.660Z,3.83
2022-10-06T20:26:50.577Z,4.45
2022-10-06T20:29:20.528Z,3.90
2022-10-06T20:31:49.555Z,4.30
2022-10-06T20:34:18.720Z,3.85
2022-10-06T20:36:47.404Z,3.13
2022-10-06T20:39:40.050Z,3.17
2022-10-06T20:42:12.009Z,2.85
2022-10-06T20:44:42.027Z,2.83
2022-10-06T20:47:08.861Z,3.55
2022-10-06T20:49:35.252Z,2.88
2022-10-06T20:52:03.200Z,2.95
2022-10-06T20:54:34.927Z,2.50
2022-10-06T20:57:03.775Z,3.22
2022-10-06T20:59:31.097Z,3.00
2022-10-06T21:01:59.894Z,3.05
2022-10-06T21:04:30.234Z,3.08
2022-10-06T21:06:57.290Z,3.03
2022-10-06T21:09:24.639Z,3.45
2022-10-06T21:11:51.877Z,3.50
2022-10-06T21:14:18.709Z,3.10
2022-10-06T21:16:47.616Z,3.08
2022-10-06T21:19:16.811Z,2.85
2022-10-06T21:21:46.077Z,2.83
2022-10-06T21:24:12.622Z,2.70
2022-10-06T21:26:42.481Z,3.28
2022-10-06T21:29:11.568Z,3.30
2022-10-06T21:31:38.213Z,3.15
2022-10-06T21:34:05.132Z,2.58
2022-10-06T21:36:34.320Z,2.80
2022-10-06T21:39:01.729Z,2.65
2022-10-06T21:41:32.035Z,2.60
2022-10-06T21:44:02.968Z,3.23
2022-10-06T21:46:51.367Z,2.92
2022-10-06T21:49:22.689Z,2.83
2022-10-06T21:54:17.931Z,2.70
2022-10-06T21:56:44.604Z,2.92
2022-10-06T21:59:11.802Z,3.10
2022-10-06T22:01:41.428Z,3.15
2022-10-06T22:04:08.549Z,3.15
2022-10-06T22:06:37.092Z,3.25
2022-10-06T22:09:06.313Z,2.90
2022-10-06T22:11:38.580Z,3.15
2022-10-06T22:14:08.062Z,2.50
2022-10-06T22:16:36.065Z,3.00
2022-10-06T22:19:04.818Z,2.80
2022-10-06T22:21:36.716Z,3.25
2022-10-06T22:24:08.880Z,2.92
2022-10-06T22:26:37.539Z,3.05
2022-10-06T22:29:06.239Z,2.55
2022-10-06T22:31:33.138Z,2.60
2022-10-06T22:34:02.002Z,2.72
2022-10-06T22:36:28.864Z,2.30
2022-10-06T22:38:56.498Z,2.08
2022-10-06T22:41:24.187Z,2.22
2022-10-06T22:43:58.297Z,2.38
2022-10-06T22:46:26.402Z,2.97
2022-10-06T22:48:53.485Z,2.60
2022-10-06T22:51:20.732Z,2.60
2022-10-06T22:53:55.166Z,2.80
2022-10-06T22:56:24.870Z,3.08
2022-10-06T22:58:51.402Z,3.30
2022-10-06T23:01:19.637Z,3.28
2022-10-06T23:03:47.259Z,3.03
2022-10-06T23:06:16.205Z,2.85
2022-10-06T23:08:43.083Z,2.90
2022-10-06T23:11:17.285Z,2.50
2022-10-06T23:13:44.632Z,2.55
2022-10-06T23:16:15.889Z,2.92
2022-10-06T23:21:13.912Z,3.08
2022-10-06T23:23:40.436Z,2.75
2022-10-06T23:26:09.354Z,2.60
2022-10-06T23:28:35.945Z,2.65
2022-10-06T23:31:05.205Z,2.90
2022-10-06T23:33:32.679Z,2.50
2022-10-06T23:36:00.936Z,3.78
2022-10-06T23:38:28.064Z,3.17
2022-10-06T23:40:55.297Z,3.28
2022-10-06T23:43:22.926Z,3.55
2022-10-06T23:45:50.350Z,3.65
2022-10-06T23:48:17.260Z,3.72
2022-10-06T23:50:43.848Z,4.18
2022-10-06T23:53:10.381Z,3.90
2022-10-06T23:55:36.908Z,4.15
2022-10-06T23:58:03.417Z,4.38
